Hovedside
METAR-TAF:

METAR-TAF

Lufthavner :

Ouagadougou lufthavn

Ouagadougou, Burkina Faso

breddegrad: 12-21N, lengdegrad: 001-31W, høyde over havet: 316 m

Gjeldene værobservasjon

Denne rapporten ble laget for 52 minutter siden, klokken 15:00 UTC
Vind 6 kt fra Nordøst, skiftende mellom Nord og Øst-nordøst
Temperatur 37°C
Luftfuktighet 14%
Trykk 1009 hPa
Sikt 10 km eller mer
ingen skyer under 1500 m og ingen bygeskyer

METAR: DFFD 201500Z 04006KT 360V070 CAVOK 37/05 Q1009 NOSIG

Tid: 15:52 (15:52 UTC)

Varsel

Denne rapporten ble laget for 4 timer og 52 minutter siden, klokken 11:00 UTC
Varsel gyldig fra 20. klokken 12 UTC til 21. klokken 18 UTC
Vind 8 kt fra Nord-nordøst
Sikt 10 km eller mer
ingen skyer under 1500 m og ingen bygeskyer
Midlertidig
fra 20. klokken 18 UTC til 20. klokken 21 UTC
Sikt: 4000 m
dis
Midlertidig
fra 21. klokken 06 UTC til 21. klokken 10 UTC
Sikt: 4000 m
dis

TAF: DFFD 201100Z 2012/2118 02008KT CAVOK TEMPO 2018/2021 4000 HZ TEMPO 2106/2110 4000 HZ

Værobservasjoner og værvarsel for over 4000 flyplasser (METAR- og TAF-rapporter).

Tilgjengelige stasjoner er representert av de røde og gule prikkene på kartet.

Hold musepekeren over prikken for å se navnet på stasjonen.

Klikk så for å se værobservasjoner og -varsler.

For å forandre kartet kan du klikke på den grønne knappen med svart kryss for å zoome inn, på den grønne knappen med strek for å zoome ut, eller på de grønne pilene for å se tilstøtende kart.


METAR-TAF: